Time;durP1;ratioP1;P1;durP2;ratioP2;P2;SDS_P1;SDS_P2;PMS_P1;PMS_P2;Temp;Humidity;BMP_temperature;BMP_pressure;BME280_temperature;BME280_humidity;BME280_pressure;Samples;Min_cycle;Max_cycle;Signal;HPM_P1;HPM_P2
2022/06/27 00:01:22;;;;;;;5.88;1.90;;;;;;;25.59;47.58;101244.09;4964244;28;20437;-67
2022/06/27 00:03:47;;;;;;;1.85;1.52;;;;;;;25.55;47.27;101245.56;4963882;28;20038;-67
2022/06/27 00:06:13;;;;;;;3.28;1.75;;;;;;;25.54;47.99;101254.88;4961667;28;20062;-67
2022/06/27 00:08:39;;;;;;;7.07;1.70;;;;;;;25.54;47.84;101254.88;4938910;29;20043;-67
2022/06/27 00:11:05;;;;;;;3.10;1.60;;;;;;;25.49;47.78;101257.41;4957355;28;20504;-67
2022/06/27 00:13:30;;;;;;;3.78;2.00;;;;;;;25.51;47.52;101279.16;4956256;28;20528;-67
2022/06/27 00:15:56;;;;;;;2.72;2.00;;;;;;;25.48;47.58;101271.34;4939128;29;20027;-67
2022/06/27 00:18:21;;;;;;;6.25;2.08;;;;;;;25.48;47.93;101280.44;4938869;29;20030;-67
2022/06/27 00:20:46;;;;;;;4.07;2.22;;;;;;;25.50;48.09;101274.72;4954919;29;20441;-67
2022/06/27 00:23:12;;;;;;;8.30;2.13;;;;;;;25.51;48.01;101266.28;4955250;28;20051;-67
2022/06/27 00:25:37;;;;;;;4.20;1.85;;;;;;;25.56;48.32;101277.44;4938680;29;20027;-67
2022/06/27 00:28:03;;;;;;;2.78;1.92;;;;;;;25.57;47.95;101281.88;4955917;28;20027;-66
2022/06/27 00:30:28;;;;;;;1.77;1.63;;;;;;;25.58;47.67;101294.53;4956162;28;20053;-67
2022/06/27 00:32:54;;;;;;;5.88;2.28;;;;;;;25.58;47.99;101300.00;4938663;29;20166;-67
2022/06/27 00:35:19;;;;;;;3.63;2.20;;;;;;;25.57;48.04;101295.59;4954689;29;20106;-67
2022/06/27 00:37:45;;;;;;;2.83;1.92;;;;;;;25.55;48.07;101294.97;4954938;28;20015;-67
2022/06/27 00:40:10;;;;;;;2.22;1.83;;;;;;;25.56;48.34;101304.88;4955713;28;20110;-67
2022/06/27 00:42:36;;;;;;;5.25;1.77;;;;;;;25.54;48.08;101298.78;4954558;29;20027;-67
2022/06/27 00:45:02;;;;;;;2.95;1.70;;;;;;;25.54;48.37;101298.78;4938631;29;20031;-67
2022/06/27 00:47:27;;;;;;;6.57;2.05;;;;;;;25.52;48.02;101295.38;4938283;29;20485;-67
2022/06/27 00:49:53;;;;;;;12.77;1.95;;;;;;;25.48;48.12;101288.66;4955513;28;20027;-67
2022/06/27 00:52:18;;;;;;;5.25;2.40;;;;;;;25.50;48.42;101303.00;4954371;29;20031;-67
2022/06/27 00:54:45;;;;;;;5.00;2.65;;;;;;;25.48;48.19;101305.13;4938317;29;20033;-67
2022/06/27 00:57:12;;;;;;;4.38;1.70;;;;;;;25.48;48.51;101299.63;4954363;29;20027;-67
2022/06/27 00:59:37;;;;;;;3.22;1.77;;;;;;;25.47;47.88;101286.97;4954535;29;20031;-67
2022/06/27 01:02:04;;;;;;;5.85;2.47;;;;;;;25.44;48.63;101276.38;4954361;29;20030;-67
2022/06/27 01:04:29;;;;;;;1.67;1.58;;;;;;;25.45;48.24;101280.81;4938189;29;20089;-66
2022/06/27 01:06:55;;;;;;;4.10;2.20;;;;;;;25.44;48.62;101281.88;4954220;29;20051;-67
2022/06/27 01:09:21;;;;;;;3.15;1.85;;;;;;;25.43;48.54;101285.69;4955210;28;20090;-67
2022/06/27 01:11:47;;;;;;;5.43;1.88;;;;;;;25.44;48.85;101287.34;4954111;29;20091;-67
2022/06/27 01:14:14;;;;;;;13.15;1.98;;;;;;;25.41;48.61;101279.56;4954180;29;20106;-67
2022/06/27 01:16:39;;;;;;;5.15;2.10;;;;;;;25.38;48.53;101282.72;4937977;29;20435;-66
2022/06/27 01:19:11;;;;;;;3.92;1.90;;;;;;;25.36;48.35;101282.09;4954115;29;20102;-67
2022/06/27 01:22:04;;;;;;;2.85;2.03;;;;;;;25.35;48.29;101284.00;4954098;29;20034;-67
2022/06/27 01:24:30;;;;;;;;;;;;;;;25.34;48.18;101265.03;4935328;29;20481;-67
2022/06/27 01:26:55;;;;;;;2.42;1.83;;;;;;;25.29;48.28;101254.69;4937935;29;19910;-67
2022/06/27 01:29:21;;;;;;;3.58;1.90;;;;;;;25.31;48.83;101257.22;4953896;29;20023;-67
2022/06/27 01:31:47;;;;;;;5.35;2.03;;;;;;;25.31;48.80;101262.72;4953975;29;20024;-67
2022/06/27 01:34:14;;;;;;;4.43;2.03;;;;;;;25.31;49.02;101258.06;4953935;29;20032;-67
2022/06/27 01:36:42;;;;;;;3.50;2.05;;;;;;;25.30;48.92;101242.66;4953855;29;20112;-67
2022/06/27 01:39:18;;;;;;;6.20;2.63;;;;;;;25.30;48.68;101244.56;4955124;28;20027;-66
2022/06/27 01:41:45;;;;;;;2.58;1.83;;;;;;;25.27;49.00;101239.50;4953993;29;20031;-67
2022/06/27 01:44:12;;;;;;;5.85;2.00;;;;;;;25.24;48.93;101238.03;4955057;28;20026;-67
2022/06/27 01:46:51;;;;;;;2.78;1.92;;;;;;;25.21;48.83;101237.66;4937759;29;20035;-67
2022/06/27 01:49:18;;;;;;;8.52;2.00;;;;;;;25.17;48.47;101230.88;4939998;29;20118;-67
2022/06/27 01:51:45;;;;;;;5.03;2.13;;;;;;;25.12;48.79;101233.44;4957676;29;20030;-67
2022/06/27 01:54:12;;;;;;;6.00;2.03;;;;;;;25.08;48.72;101232.16;4958708;28;20122;-67
2022/06/27 01:56:38;;;;;;;8.52;2.30;;;;;;;25.05;48.52;101227.09;4957521;29;20078;-67
2022/06/27 01:59:04;;;;;;;2.28;1.90;;;;;;;25.00;48.91;101225.00;4958694;28;20029;-66
2022/06/27 02:01:29;;;;;;;6.00;2.70;;;;;;;24.98;49.24;101221.66;4941414;29;20463;-67
2022/06/27 02:03:56;;;;;;;6.57;2.20;;;;;;;24.96;48.55;101211.97;4957448;29;20458;-66
2022/06/27 02:06:22;;;;;;;4.30;2.88;;;;;;;24.95;49.00;101210.25;4973318;28;20481;-67
2022/06/27 02:08:50;;;;;;;2.92;1.70;;;;;;;24.93;49.02;101206.91;4958274;28;20050;-68
2022/06/27 02:11:17;;;;;;;4.10;2.10;;;;;;;24.96;49.26;101220.19;4957482;29;20059;-67
2022/06/27 02:13:43;;;;;;;4.72;1.98;;;;;;;24.96;49.01;101222.94;4957169;29;20559;-67
2022/06/27 02:16:14;;;;;;;5.07;2.00;;;;;;;24.95;49.52;101216.59;4941145;29;20078;-67
2022/06/27 02:18:40;;;;;;;4.40;2.10;;;;;;;24.97;48.93;101213.63;4957124;29;20024;-67
2022/06/27 02:21:26;;;;;;;2.53;2.30;;;;;;;24.98;49.08;101204.34;4941096;29;20432;-67
2022/06/27 02:23:53;;;;;;;5.93;2.15;;;;;;;24.94;49.36;101194.88;4957934;28;20042;-67
2022/06/27 02:26:24;;;;;;;4.05;2.50;;;;;;;24.93;49.32;101207.72;4940941;29;20027;-67
2022/06/27 02:28:50;;;;;;;4.45;2.28;;;;;;;24.94;49.47;101200.34;4956952;29;20082;-67
2022/06/27 02:31:16;;;;;;;3.53;3.00;;;;;;;24.94;49.14;101197.59;4957016;29;20065;-67
2022/06/27 02:33:44;;;;;;;3.97;2.65;;;;;;;24.90;49.77;101192.53;4957935;28;20050;-67
2022/06/27 02:36:13;;;;;;;2.35;2.10;;;;;;;24.90;49.82;101192.53;4956802;29;20449;-67
2022/06/27 02:38:40;;;;;;;6.35;2.50;;;;;;;24.88;49.36;101189.19;4957959;28;20473;-67
2022/06/27 02:41:07;;;;;;;4.55;2.15;;;;;;;24.84;49.49;101181.63;4956654;29;20082;-67
2022/06/27 02:43:35;;;;;;;4.45;2.50;;;;;;;24.86;49.60;101187.72;4956725;29;20027;-67
2022/06/27 02:46:01;;;;;;;6.15;2.97;;;;;;;24.87;49.93;101187.50;4940631;29;20494;-67
2022/06/27 02:48:27;;;;;;;5.00;2.80;;;;;;;24.85;49.85;101184.13;4956422;29;20027;-67
2022/06/27 02:50:58;;;;;;;7.18;2.10;;;;;;;24.83;49.48;101180.78;4940520;29;20473;-67
2022/06/27 02:53:27;;;;;;;3.92;2.72;;;;;;;24.85;49.51;101178.66;4940868;29;20074;-67
2022/06/27 02:55:54;;;;;;;7.63;2.70;;;;;;;24.84;49.36;101171.50;4940496;29;20400;-67
2022/06/27 02:58:25;;;;;;;6.10;3.00;;;;;;;24.85;50.14;101167.69;4940414;29;20505;-67
2022/06/27 03:00:52;;;;;;;3.47;2.67;;;;;;;24.82;49.83;101162.63;4955302;28;20042;-67
2022/06/27 03:03:18;;;;;;;5.88;2.83;;;;;;;24.85;49.43;101151.25;4956427;29;20027;-67
2022/06/27 03:06:06;;;;;;;7.75;3.10;;;;;;;24.85;50.19;101151.25;4956355;29;20037;-66
2022/06/27 03:08:40;;;;;;;6.18;3.05;;;;;;;24.84;49.78;101149.56;4956271;29;20138;-67
2022/06/27 03:11:05;;;;;;;3.92;3.05;;;;;;;24.86;50.07;101163.91;4956174;29;20094;-67
2022/06/27 03:13:31;;;;;;;5.35;3.47;;;;;;;24.90;49.65;101164.31;4957344;28;20027;-67
2022/06/27 03:15:57;;;;;;;5.57;4.07;;;;;;;24.89;49.77;101149.78;4956130;29;20046;-67
2022/06/27 03:18:22;;;;;;;4.70;3.50;;;;;;;24.95;50.24;101155.44;4956128;29;20520;-67
2022/06/27 03:20:47;;;;;;;5.93;3.53;;;;;;;24.95;49.74;101155.44;4955967;29;20027;-67
2022/06/27 03:23:13;;;;;;;7.47;3.90;;;;;;;24.98;50.09;101161.34;4955906;29;20050;-67
2022/06/27 03:25:38;;;;;;;5.35;3.50;;;;;;;24.96;49.54;101152.47;4955900;29;20519;-67
2022/06/27 03:28:04;;;;;;;6.70;3.80;;;;;;;24.99;49.61;101167.63;4955780;29;20477;-67
2022/06/27 03:30:29;;;;;;;6.72;3.92;;;;;;;24.98;49.42;101165.97;4955767;29;20592;-67
2022/06/27 03:32:55;;;;;;;7.70;4.50;;;;;;;24.96;49.99;101168.09;4955740;28;20031;-67
2022/06/27 03:35:20;;;;;;;9.68;5.28;;;;;;;25.00;49.76;101183.03;4939667;29;20405;-67
2022/06/27 03:37:45;;;;;;;10.05;5.63;;;;;;;25.00;50.07;101196.75;4956932;28;20023;-67
2022/06/27 03:40:12;;;;;;;9.55;5.63;;;;;;;25.02;50.02;101190.00;4956837;28;20581;-67
2022/06/27 03:42:37;;;;;;;11.82;5.93;;;;;;;25.02;49.47;101200.13;4939523;29;20031;-67
2022/06/27 03:45:03;;;;;;;7.10;4.93;;;;;;;25.03;49.85;101199.06;4955544;29;20027;-67
2022/06/27 03:47:28;;;;;;;11.88;6.57;;;;;;;25.05;49.78;101194.19;4956558;28;20096;-67
2022/06/27 03:50:02;;;;;;;9.63;5.72;;;;;;;25.05;50.01;101189.56;4956716;28;20473;-66
2022/06/27 03:52:28;;;;;;;13.43;6.10;;;;;;;25.07;49.75;101192.94;4956588;28;20064;-67
2022/06/27 03:54:54;;;;;;;10.93;6.28;;;;;;;25.09;49.88;101184.50;4955364;29;20070;-67
2022/06/27 03:57:20;;;;;;;11.63;6.47;;;;;;;25.11;50.00;101165.94;4955426;29;20050;-67
2022/06/27 03:59:45;;;;;;;9.98;6.35;;;;;;;25.16;49.82;101168.84;4956513;28;20098;-67
2022/06/27 04:02:10;;;;;;;13.88;6.82;;;;;;;25.17;49.97;101171.41;4956388;28;20031;-66
2022/06/27 04:04:36;;;;;;;9.68;6.53;;;;;;;25.22;49.53;101187.19;4955234;29;20444;-66
2022/06/27 04:07:02;;;;;;;10.00;6.18;;;;;;;25.23;49.66;101169.69;4955026;28;20129;-67
2022/06/27 04:09:28;;;;;;;9.88;6.13;;;;;;;25.26;49.53;101170.13;4939076;29;20047;-66
2022/06/27 04:11:54;;;;;;;9.82;6.55;;;;;;;25.27;49.57;101170.94;4954959;28;20030;-66
2022/06/27 04:14:19;;;;;;;10.50;6.35;;;;;;;25.28;49.44;101180.84;4954924;29;20481;-66
2022/06/27 04:16:45;;;;;;;9.90;6.18;;;;;;;25.28;49.48;101186.34;4938964;29;20030;-66
2022/06/27 04:19:10;;;;;;;9.50;5.85;;;;;;;25.31;49.71;101188.66;4938917;29;20028;-67
2022/06/27 04:21:35;;;;;;;9.30;6.13;;;;;;;25.31;49.76;101178.53;4938815;29;20027;-66
2022/06/27 04:24:02;;;;;;;13.15;6.50;;;;;;;25.34;49.35;101174.50;4938867;29;20038;-66
2022/06/27 04:26:28;;;;;;;10.38;6.55;;;;;;;25.38;49.33;101164.75;4957180;28;20037;-66
2022/06/27 04:28:54;;;;;;;11.80;6.93;;;;;;;25.39;49.94;101152.75;4974086;28;20448;-66
2022/06/27 04:31:19;;;;;;;10.80;5.50;;;;;;;25.38;49.45;101160.13;4960741;28;20018;-67
2022/06/27 04:33:45;;;;;;;10.60;6.72;;;;;;;25.40;49.45;101154.44;4975709;28;20547;-67
2022/06/27 04:36:11;;;;;;;14.98;6.63;;;;;;;25.42;49.29;101157.78;4959095;28;20403;-66
2022/06/27 04:38:38;;;;;;;9.27;6.43;;;;;;;25.44;49.39;101150.19;4975059;28;20442;-66
2022/06/27 04:41:03;;;;;;;16.60;6.47;;;;;;;25.42;49.69;101147.66;4957769;28;20046;-66
2022/06/27 04:43:28;;;;;;;10.00;5.97;;;;;;;25.42;49.56;101146.81;4973781;28;20103;-66
2022/06/27 04:45:54;;;;;;;10.30;6.93;;;;;;;25.41;49.84;101145.97;4957937;28;20023;-66
2022/06/27 04:48:20;;;;;;;11.70;7.28;;;;;;;25.42;49.50;101135.84;4974855;28;20069;-66
2022/06/27 04:50:46;;;;;;;14.55;6.80;;;;;;;25.40;49.43;101127.81;4973835;28;20029;-67
2022/06/27 04:53:13;;;;;;;12.93;6.25;;;;;;;25.43;49.84;101134.81;4973705;28;20473;-67
2022/06/27 04:55:39;;;;;;;9.60;6.43;;;;;;;25.41;49.53;101135.00;4957728;28;20496;-66
2022/06/27 04:58:05;;;;;;;12.70;6.68;;;;;;;25.44;49.17;101144.69;4973706;28;20025;-66
2022/06/27 05:00:30;;;;;;;10.98;6.72;;;;;;;25.45;49.48;101124.44;4989666;28;20117;-66
2022/06/27 05:02:56;;;;;;;13.63;6.80;;;;;;;25.49;49.42;101131.19;4974719;28;20078;-67
2022/06/27 05:05:21;;;;;;;12.07;7.05;;;;;;;25.50;49.10;101130.13;4974795;28;20087;-66
2022/06/27 05:07:46;;;;;;;10.82;7.07;;;;;;;25.51;49.47;101120.84;4973215;28;20105;-66
2022/06/27 05:10:12;;;;;;;8.23;6.47;;;;;;;25.50;49.16;101094.47;4973533;28;20034;-66
2022/06/27 05:12:38;;;;;;;13.65;6.43;;;;;;;25.51;49.29;101104.41;4973463;28;20030;-66
2022/06/27 05:15:04;;;;;;;11.88;6.93;;;;;;;25.51;49.21;101122.75;4957290;28;20027;-66
2022/06/27 05:17:30;;;;;;;10.30;6.88;;;;;;;25.51;49.06;101130.97;4973273;28;20101;-66
2022/06/27 05:19:55;;;;;;;14.70;6.60;;;;;;;25.51;49.64;101140.06;4973360;28;20018;-66
2022/06/27 05:22:21;;;;;;;11.48;7.07;;;;;;;25.50;49.44;101159.47;4956499;28;20026;-67
2022/06/27 05:24:49;;;;;;;14.60;8.23;;;;;;;25.53;49.22;101165.38;4956764;28;20578;-66
2022/06/27 05:27:17;;;;;;;18.30;7.90;;;;;;;25.60;48.75;101166.16;4974459;28;20500;-67
2022/06/27 05:29:43;;;;;;;15.15;7.22;;;;;;;25.79;48.62;101165.25;4957208;28;20031;-66
2022/06/27 05:32:09;;;;;;;10.48;6.32;;;;;;;25.92;48.71;101162.41;4957132;28;20034;-66
2022/06/27 05:34:35;;;;;;;10.27;7.43;;;;;;;26.05;48.77;101170.53;4974495;28;20034;-67
2022/06/27 05:37:00;;;;;;;14.23;7.40;;;;;;;26.15;48.69;101172.00;4957219;28;20027;-66
2022/06/27 05:39:26;;;;;;;14.02;7.38;;;;;;;26.18;48.80;101182.53;4973258;28;20031;-66
2022/06/27 05:41:51;;;;;;;12.48;7.55;;;;;;;26.17;49.10;101195.41;4973255;28;20106;-67
2022/06/27 05:44:17;;;;;;;11.50;7.93;;;;;;;26.22;48.79;101197.47;4974360;28;20031;-68
2022/06/27 05:46:42;;;;;;;17.65;7.25;;;;;;;26.26;48.87;101193.25;4990000;28;20097;-66
2022/06/27 05:49:11;;;;;;;11.90;7.45;;;;;;;26.29;48.54;101195.56;4976166;28;20062;-66
2022/06/27 05:51:37;;;;;;;16.52;7.80;;;;;;;26.30;48.95;101220.03;4960844;28;20030;-67
2022/06/27 05:54:03;;;;;;;14.45;7.35;;;;;;;26.33;48.84;101227.00;4993626;28;20030;-68
2022/06/27 05:56:30;;;;;;;14.13;7.50;;;;;;;26.31;48.56;101224.47;4992452;28;20391;-68
2022/06/27 05:58:55;;;;;;;12.15;7.60;;;;;;;26.33;48.58;101216.00;4992377;28;20022;-68
2022/06/27 06:01:22;;;;;;;11.55;7.28;;;;;;;26.33;48.29;101200.34;4976313;28;20037;-68
2022/06/27 06:03:48;;;;;;;11.85;7.15;;;;;;;26.38;48.35;101207.97;4992302;28;20026;-67
2022/06/27 06:06:13;;;;;;;12.52;7.78;;;;;;;26.37;48.32;101222.75;4992497;28;20049;-67
2022/06/27 06:08:40;;;;;;;14.75;7.93;;;;;;;26.36;48.04;101237.53;4993210;28;20050;-67
2022/06/27 06:11:05;;;;;;;15.18;7.68;;;;;;;26.35;48.45;101257.84;4993545;28;20046;-66
2022/06/27 06:13:31;;;;;;;13.73;7.22;;;;;;;26.35;48.63;101268.84;4992245;28;20102;-67
2022/06/27 06:15:57;;;;;;;16.30;7.40;;;;;;;26.35;48.17;101279.84;4993373;28;20030;-67
2022/06/27 06:18:23;;;;;;;15.40;7.50;;;;;;;26.35;48.48;101290.81;4992247;28;20022;-67
2022/06/27 06:20:48;;;;;;;13.07;7.63;;;;;;;26.36;48.17;101297.97;4992179;28;20022;-67
2022/06/27 06:23:14;;;;;;;11.18;7.20;;;;;;;26.32;48.28;101289.38;4975933;28;20054;-67
2022/06/27 06:25:41;;;;;;;12.82;8.13;;;;;;;26.34;48.67;101287.22;4992309;28;20034;-67
2022/06/27 06:28:06;;;;;;;16.50;7.65;;;;;;;26.35;48.56;101285.31;4992043;28;20027;-67
2022/06/27 06:30:33;;;;;;;14.80;7.80;;;;;;;26.34;48.32;101279.00;4992123;28;20030;-67
2022/06/27 06:33:02;;;;;;;16.60;7.85;;;;;;;26.34;48.05;101273.50;4979884;28;20019;-67
2022/06/27 06:35:31;;;;;;;14.00;8.38;;;;;;;26.36;48.22;101257.63;4957860;28;20053;-67
2022/06/27 06:37:58;;;;;;;20.98;8.75;;;;;;;26.36;48.70;101243.88;4959923;28;20038;-67
2022/06/27 06:40:23;;;;;;;14.25;7.55;;;;;;;26.37;48.59;101217.25;4975914;28;20508;-67
2022/06/27 06:42:49;;;;;;;12.77;7.88;;;;;;;26.41;48.48;101210.25;4959796;28;20027;-67
2022/06/27 06:45:14;;;;;;;15.40;7.97;;;;;;;26.45;48.43;101197.72;4975968;28;20118;-67
2022/06/27 06:47:44;;;;;;;14.40;8.00;;;;;;;26.48;48.07;101192.66;4975851;28;20027;-67
2022/06/27 06:50:13;;;;;;;13.05;8.23;;;;;;;26.53;48.34;101189.22;4975820;28;20472;-67
2022/06/27 06:52:41;;;;;;;12.32;7.65;;;;;;;26.57;48.31;101193.19;4975969;28;20472;-67
2022/06/27 06:55:08;;;;;;;16.35;7.38;;;;;;;26.61;48.18;101210.91;4975838;28;20025;-68
2022/06/27 06:57:33;;;;;;;15.02;8.18;;;;;;;26.65;47.95;101225.06;4959852;28;20082;-66
2022/06/27 06:59:59;;;;;;;15.57;7.82;;;;;;;26.66;47.59;101221.25;4959508;28;20023;-66
2022/06/27 07:02:25;;;;;;;16.33;7.38;;;;;;;26.68;48.05;101228.19;4991841;28;20065;-67
2022/06/27 07:04:52;;;;;;;12.40;7.82;;;;;;;26.70;48.10;101220.56;4975595;28;20499;-66
2022/06/27 07:07:19;;;;;;;13.40;8.18;;;;;;;26.83;47.51;101205.91;4975277;28;20059;-66
2022/06/27 07:09:44;;;;;;;12.52;7.57;;;;;;;27.07;47.26;101230.59;4976696;28;20049;-66
2022/06/27 07:12:10;;;;;;;13.43;7.68;;;;;;;27.10;47.89;101243.91;4975535;28;20532;-67
2022/06/27 07:14:35;;;;;;;13.65;7.40;;;;;;;27.12;47.34;101250.00;4959251;28;20041;-67
2022/06/27 07:17:01;;;;;;;16.75;8.07;;;;;;;27.14;47.43;101247.88;4975401;28;20018;-66
2022/06/27 07:19:26;;;;;;;16.27;7.78;;;;;;;27.20;47.64;101221.34;4975336;28;20037;-68
2022/06/27 07:21:52;;;;;;;11.55;7.03;;;;;;;27.26;46.52;101222.34;4976362;28;20019;-66
2022/06/27 07:24:18;;;;;;;12.00;7.50;;;;;;;27.33;47.52;101234.13;4976389;28;20054;-66
2022/06/27 07:26:44;;;;;;;12.45;7.88;;;;;;;27.38;46.54;101226.03;4975191;28;20114;-66
2022/06/27 07:29:10;;;;;;;12.57;7.82;;;;;;;27.43;46.84;101228.97;4975130;28;20027;-65
2022/06/27 07:31:36;;;;;;;19.02;7.85;;;;;;;27.44;46.53;101219.66;4958984;28;20035;-66
2022/06/27 07:34:02;;;;;;;12.63;7.25;;;;;;;27.46;46.30;101245.03;4976371;28;20026;-66
2022/06/27 07:36:28;;;;;;;22.60;7.47;;;;;;;27.46;46.80;101251.38;4958975;28;20054;-66
2022/06/27 07:38:54;;;;;;;11.68;8.18;;;;;;;27.48;47.09;101256.63;4975096;28;20033;-66
2022/06/27 07:41:21;;;;;;;14.45;8.00;;;;;;;27.48;46.17;101262.13;4975148;28;20027;-65
2022/06/27 07:43:47;;;;;;;13.68;7.47;;;;;;;27.45;46.41;101277.19;4958875;28;20031;-66
2022/06/27 07:46:15;;;;;;;12.82;7.28;;;;;;;27.43;46.71;101275.75;4958319;28;20027;-67
2022/06/27 07:48:41;;;;;;;12.88;7.25;;;;;;;27.46;47.07;101269.78;4958846;28;20026;-66
2022/06/27 07:51:07;;;;;;;15.65;7.60;;;;;;;27.54;46.77;101275.00;4974926;28;20539;-65
2022/06/27 07:53:32;;;;;;;16.88;7.88;;;;;;;27.58;46.59;101274.28;4974881;28;20026;-66
2022/06/27 07:56:00;;;;;;;21.42;6.95;;;;;;;27.61;46.12;101276.59;4976092;28;20031;-67
2022/06/27 07:58:33;;;;;;;14.57;7.45;;;;;;;27.62;46.57;101272.78;4974998;28;20015;-66
2022/06/27 08:01:03;;;;;;;13.05;7.05;;;;;;;27.65;46.02;101287.97;4974658;28;20023;-67
2022/06/27 08:03:44;;;;;;;12.27;8.00;;;;;;;27.67;46.06;101291.34;4958467;28;20023;-65
2022/06/27 08:06:18;;;;;;;16.27;7.28;;;;;;;27.67;46.76;101292.19;4975042;28;20500;-66
2022/06/27 08:08:49;;;;;;;11.05;7.03;;;;;;;27.68;46.17;101299.38;4974363;28;20049;-65
2022/06/27 08:11:21;;;;;;;12.65;7.15;;;;;;;27.69;46.79;101305.75;4974522;28;20504;-66
2022/06/27 08:13:47;;;;;;;12.07;5.88;;;;;;;27.70;46.18;101301.91;4974714;28;20106;-67
2022/06/27 08:16:14;;;;;;;12.05;5.80;;;;;;;27.73;46.29;101307.78;4974416;28;20027;-67
2022/06/27 08:18:43;;;;;;;11.63;6.07;;;;;;;27.75;46.21;101313.06;4974298;28;20105;-66
2022/06/27 08:21:09;;;;;;;14.75;6.18;;;;;;;27.74;46.56;101314.16;4958281;28;20026;-66
2022/06/27 08:23:36;;;;;;;9.10;5.93;;;;;;;27.75;45.61;101322.16;4974265;28;20109;-66
2022/06/27 08:26:04;;;;;;;15.38;5.95;;;;;;;27.77;46.32;101329.38;4974317;28;20039;-66
2022/06/27 08:28:30;;;;;;;11.18;5.55;;;;;;;27.78;46.21;101309.84;4958213;28;20053;-67
2022/06/27 08:30:57;;;;;;;8.15;4.38;;;;;;;27.83;46.05;101311.94;4957890;28;20489;-66
2022/06/27 08:33:23;;;;;;;13.32;4.72;;;;;;;27.84;45.99;101319.94;4974236;28;20126;-66
2022/06/27 08:35:49;;;;;;;7.68;5.03;;;;;;;27.88;45.35;101326.69;4974154;28;20030;-66
2022/06/27 08:38:16;;;;;;;11.88;5.38;;;;;;;27.92;45.63;101319.63;4957912;28;20019;-66
2022/06/27 08:40:42;;;;;;;6.25;4.13;;;;;;;27.94;45.58;101316.66;4958117;28;20543;-66
2022/06/27 08:43:10;;;;;;;7.28;4.13;;;;;;;27.98;45.30;101326.97;4958057;28;20047;-66
2022/06/27 08:45:35;;;;;;;7.22;3.92;;;;;;;28.07;44.61;101339.41;4974072;28;20037;-66
2022/06/27 08:48:07;;;;;;;8.23;4.30;;;;;;;28.14;44.81;101342.09;4973693;28;20031;-67
2022/06/27 08:50:35;;;;;;;6.72;3.97;;;;;;;28.21;44.71;101329.88;4958487;28;20391;-67
2022/06/27 08:53:04;;;;;;;13.23;3.75;;;;;;;28.30;44.28;101339.53;4973707;28;20037;-66
2022/06/27 08:55:31;;;;;;;6.68;4.68;;;;;;;28.37;44.13;101341.31;4973993;28;20106;-66
2022/06/27 08:58:03;;;;;;;5.72;3.60;;;;;;;28.39;43.84;101355.72;4973123;28;20015;-66
2022/06/27 09:00:30;;;;;;;;;;;;;;;28.43;44.72;101356.94;4958490;28;20033;-66
2022/06/27 09:02:55;;;;;;;7.88;3.20;;;;;;;28.47;44.44;101347.97;4989774;28;20268;-66
2022/06/27 09:05:24;;;;;;;7.88;3.50;;;;;;;28.57;43.40;101361.19;4957377;28;20038;-67
2022/06/27 09:07:54;;;;;;;5.53;3.63;;;;;;;28.72;42.79;101361.63;4973365;28;20101;-67
2022/06/27 09:10:36;;;;;;;6.93;3.67;;;;;;;28.80;42.21;101353.88;4974781;28;20106;-66
2022/06/27 09:13:02;;;;;;;8.70;3.45;;;;;;;28.83;42.79;101347.03;4974815;28;20085;-66
2022/06/27 09:15:46;;;;;;;7.10;3.90;;;;;;;28.83;42.97;101341.50;4973589;28;20066;-66
2022/06/27 09:18:14;;;;;;;11.93;4.07;;;;;;;28.82;43.14;101345.34;4973576;28;20029;-66
2022/06/27 09:20:50;;;;;;;8.35;4.05;;;;;;;28.85;43.32;101344.88;4957483;28;20027;-66
2022/06/27 09:23:29;;;;;;;8.95;3.88;;;;;;;28.90;42.34;101347.75;4973838;28;20388;-66
2022/06/27 09:26:02;;;;;;;6.05;3.33;;;;;;;28.91;42.05;101349.44;4974633;28;20022;-66
2022/06/27 09:28:58;;;;;;;8.93;3.13;;;;;;;28.91;41.83;101363.25;4973263;28;20035;-67
2022/06/27 09:31:26;;;;;;;5.25;3.42;;;;;;;28.89;43.07;101371.72;4973741;28;20396;-66
2022/06/27 09:34:14;;;;;;;7.65;3.80;;;;;;;28.86;42.10;101363.97;4974636;28;20019;-66
2022/06/27 09:36:52;;;;;;;10.63;4.10;;;;;;;28.87;41.79;101367.53;4973487;28;20384;-66
2022/06/27 09:39:28;;;;;;;7.90;3.30;;;;;;;28.89;42.24;101357.13;4974532;28;20054;-66
2022/06/27 09:42:11;;;;;;;8.63;3.72;;;;;;;28.99;42.12;101348.25;4989382;28;20063;-67
2022/06/27 09:44:38;;;;;;;5.28;2.28;;;;;;;29.12;41.89;101351.63;4957363;28;20061;-67
2022/06/27 09:47:07;;;;;;;7.20;3.20;;;;;;;29.30;41.37;101348.81;4974623;28;20073;-66
2022/06/27 09:49:35;;;;;;;5.82;3.30;;;;;;;29.47;41.09;101345.31;4989190;28;20027;-67
2022/06/27 09:52:07;;;;;;;9.25;3.30;;;;;;;29.57;41.07;101345.53;4957109;28;20022;-68
2022/06/27 09:54:34;;;;;;;7.13;4.38;;;;;;;29.64;40.35;101343.50;4973276;28;20117;-67
2022/06/27 09:57:00;;;;;;;6.20;3.55;;;;;;;29.82;40.45;101346.13;4957354;28;20420;-66
2022/06/27 09:59:26;;;;;;;7.35;4.07;;;;;;;30.00;40.10;101340.47;4973129;28;20398;-67
2022/06/27 10:01:52;;;;;;;6.70;4.65;;;;;;;30.11;39.84;101336.81;4973195;28;20035;-67
2022/06/27 10:04:18;;;;;;;9.18;4.43;;;;;;;30.18;40.49;101337.50;4957105;28;20031;-66
2022/06/27 10:06:44;;;;;;;10.27;4.68;;;;;;;30.23;39.83;101337.63;4973164;28;20102;-67
2022/06/27 10:09:12;;;;;;;9.35;4.85;;;;;;;30.24;39.48;101338.44;4974698;28;20114;-66
2022/06/27 10:11:38;;;;;;;9.02;4.47;;;;;;;30.19;40.29;101335.59;4976697;28;20038;-66
2022/06/27 10:14:19;;;;;;;9.27;4.13;;;;;;;30.10;39.82;101340.66;4976842;28;20045;-66
2022/06/27 10:16:53;;;;;;;9.43;4.60;;;;;;;30.08;39.73;101329.00;4960491;28;20027;-67
2022/06/27 10:19:19;;;;;;;9.50;3.95;;;;;;;30.12;39.66;101324.69;4960515;28;20042;-66
2022/06/27 10:21:46;;;;;;;10.80;4.60;;;;;;;30.27;39.19;101322.22;4960290;28;20065;-66
2022/06/27 10:24:24;;;;;;;8.77;4.25;;;;;;;30.41;39.41;101334.69;4976739;28;20081;-66
2022/06/27 10:26:58;;;;;;;14.00;4.72;;;;;;;30.54;39.12;101334.38;4977624;28;20033;-66
2022/06/27 10:29:27;;;;;;;8.00;4.28;;;;;;;30.74;38.56;101322.03;4976315;28;20081;-66
2022/06/27 10:31:52;;;;;;;11.23;4.95;;;;;;;30.85;38.81;101321.09;4977544;28;20026;-66
2022/06/27 10:34:18;;;;;;;10.25;4.50;;;;;;;30.89;38.59;101319.50;4976236;28;20503;-66
2022/06/27 10:36:43;;;;;;;13.30;4.72;;;;;;;31.02;38.29;101319.19;4977421;28;20431;-68
2022/06/27 10:39:19;;;;;;;10.35;4.90;;;;;;;31.18;38.50;101312.81;4976136;28;20031;-67
2022/06/27 10:41:44;;;;;;;7.88;5.15;;;;;;;31.27;38.83;101313.22;4976161;28;20030;-67
2022/06/27 10:44:28;;;;;;;9.80;6.50;;;;;;;31.33;38.04;101321.34;4976018;28;20373;-67
2022/06/27 10:46:53;;;;;;;12.10;6.82;;;;;;;31.33;38.23;101331.56;4959771;28;20092;-66
2022/06/27 10:49:20;;;;;;;9.85;6.43;;;;;;;31.25;38.30;101330.09;4975809;28;20532;-67
2022/06/27 10:51:46;;;;;;;11.50;5.72;;;;;;;31.18;38.31;101329.44;4975908;28;20031;-67
2022/06/27 10:54:12;;;;;;;9.80;6.22;;;;;;;31.19;38.39;101328.31;4959811;28;20026;-67
2022/06/27 10:56:51;;;;;;;11.18;6.93;;;;;;;31.28;37.98;101328.72;4975916;28;20110;-67
2022/06/27 10:59:16;;;;;;;11.05;6.20;;;;;;;31.35;37.72;101329.41;4975947;28;20019;-67
2022/06/27 11:02:03;;;;;;;9.88;6.75;;;;;;;31.37;38.23;101336.38;4991966;28;20169;-67
2022/06/27 11:04:33;;;;;;;9.45;6.88;;;;;;;31.39;37.73;101348.03;4975463;28;20027;-67
2022/06/27 11:07:03;;;;;;;7.88;5.68;;;;;;;31.31;38.13;101345.69;4959411;28;20054;-67
2022/06/27 11:09:38;;;;;;;11.48;6.15;;;;;;;31.29;38.10;101336.81;4976654;28;20034;-67
2022/06/27 11:12:05;;;;;;;11.40;6.78;;;;;;;31.35;37.80;101335.75;4991645;28;20377;-67
2022/06/27 11:14:30;;;;;;;9.55;6.97;;;;;;;31.50;37.43;101333.25;4959227;28;20062;-67
2022/06/27 11:16:55;;;;;;;12.40;5.85;;;;;;;31.47;37.51;101327.38;4975445;28;20074;-67
2022/06/27 11:22:18;;;;;;;13.38;7.15;;;;;;;31.36;37.67;101347.69;4974953;28;20084;-67
2022/06/27 11:24:50;;;;;;;7.03;5.10;;;;;;;31.37;37.29;101341.06;4959156;28;20046;-67
2022/06/27 11:27:16;;;;;;;10.73;5.72;;;;;;;31.28;37.57;101348.97;4975287;28;20018;-67